createdAt,value
2022-12-14T00:02:01.425Z,-4.80
2022-12-14T00:04:29.968Z,-4.80
2022-12-14T00:06:58.241Z,-4.90
2022-12-14T00:09:26.541Z,-4.90
2022-12-14T00:11:54.852Z,-4.90
2022-12-14T00:14:23.300Z,-4.90
2022-12-14T00:16:51.857Z,-4.90
2022-12-14T00:19:21.512Z,-4.90
2022-12-14T00:21:49.773Z,-4.90
2022-12-14T00:24:17.975Z,-4.90
2022-12-14T00:26:46.396Z,-5.00
2022-12-14T00:29:14.632Z,-5.00
2022-12-14T00:31:42.945Z,-5.00
2022-12-14T00:34:11.290Z,-5.00
2022-12-14T00:36:40.882Z,-5.00
2022-12-14T00:39:09.141Z,-5.00
2022-12-14T00:41:37.901Z,-5.10
2022-12-14T00:44:06.604Z,-5.10
2022-12-14T00:46:34.965Z,-5.20
2022-12-14T00:49:03.360Z,-5.30
2022-12-14T00:51:31.663Z,-5.20
2022-12-14T00:54:01.307Z,-5.20
2022-12-14T00:56:29.571Z,-5.20
2022-12-14T00:58:57.857Z,-5.30
2022-12-14T01:01:26.223Z,-5.40
2022-12-14T01:04:15.512Z,-5.40
2022-12-14T01:06:44.021Z,-5.50
2022-12-14T01:09:13.674Z,-5.50
2022-12-14T01:11:42.198Z,-5.60
2022-12-14T01:14:10.518Z,-5.70
2022-12-14T01:16:38.804Z,-5.70
2022-12-14T01:19:07.253Z,-5.80
2022-12-14T01:21:35.788Z,-5.70
2022-12-14T01:24:04.820Z,-5.70
2022-12-14T01:26:38.679Z,-5.70
2022-12-14T01:29:07.335Z,-5.70
2022-12-14T01:31:37.100Z,-5.70
2022-12-14T01:34:05.540Z,-5.60
2022-12-14T01:36:35.074Z,-5.60
2022-12-14T01:39:05.447Z,-5.60
2022-12-14T01:41:37.516Z,-5.60
2022-12-14T01:44:54.579Z,-5.60
2022-12-14T01:47:35.739Z,-5.50
2022-12-14T01:50:09.777Z,-5.50
2022-12-14T01:52:40.970Z,-5.50
2022-12-14T01:55:12.401Z,-5.60
2022-12-14T01:57:44.189Z,-5.60
2022-12-14T02:00:14.233Z,-5.70
2022-12-14T02:02:45.533Z,-5.70
2022-12-14T02:05:13.816Z,-5.70
2022-12-14T02:07:42.208Z,-5.70
2022-12-14T02:10:11.019Z,-5.80
2022-12-14T02:12:44.050Z,-6.00
2022-12-14T02:15:12.908Z,-6.00
2022-12-14T02:17:42.522Z,-6.00
2022-12-14T02:20:11.977Z,-5.90
2022-12-14T02:23:21.287Z,-5.90
2022-12-14T02:26:41.609Z,-5.90
2022-12-14T02:29:36.131Z,-5.90
2022-12-14T02:32:24.093Z,-5.90
2022-12-14T02:34:58.903Z,-5.90
2022-12-14T02:37:32.570Z,-5.90
2022-12-14T02:40:10.436Z,-5.90
2022-12-14T02:42:43.889Z,-5.90
2022-12-14T02:45:18.098Z,-5.90
2022-12-14T02:47:51.215Z,-6.00
2022-12-14T02:50:24.342Z,-6.00
2022-12-14T02:52:58.364Z,-6.00
2022-12-14T02:55:31.479Z,-6.00
2022-12-14T02:58:01.772Z,-6.10
2022-12-14T03:00:33.603Z,-6.10
2022-12-14T03:03:02.323Z,-6.10
2022-12-14T03:05:30.860Z,-6.20
2022-12-14T03:07:59.941Z,-6.20
2022-12-14T03:10:36.350Z,-6.20
2022-12-14T03:13:11.601Z,-6.20
2022-12-14T03:15:42.769Z,-6.20
2022-12-14T03:18:11.299Z,-6.20
2022-12-14T03:20:39.620Z,-6.20
2022-12-14T03:23:10.301Z,-6.20
2022-12-14T03:25:43.203Z,-6.20
2022-12-14T03:28:15.474Z,-6.20
2022-12-14T03:31:01.521Z,-6.30
2022-12-14T03:33:30.619Z,-6.20
2022-12-14T03:36:02.082Z,-6.20
2022-12-14T03:38:35.312Z,-6.20
2022-12-14T03:41:14.250Z,-6.20
2022-12-14T03:43:51.138Z,-6.20
2022-12-14T03:46:25.063Z,-6.20
2022-12-14T03:48:55.138Z,-6.20
2022-12-14T03:51:26.164Z,-6.20
2022-12-14T03:54:01.679Z,-6.20
2022-12-14T03:56:35.482Z,-6.20
2022-12-14T03:59:07.517Z,-6.20
2022-12-14T04:01:42.658Z,-6.20
2022-12-14T04:04:13.151Z,-6.20
2022-12-14T04:06:44.717Z,-6.20
2022-12-14T04:09:24.463Z,-6.20
2022-12-14T04:12:13.431Z,-6.20
2022-12-14T04:15:02.885Z,-6.30
2022-12-14T04:17:52.817Z,-6.30
2022-12-14T04:20:23.429Z,-6.30
2022-12-14T04:22:55.494Z,-6.30
2022-12-14T04:25:44.253Z,-6.30
2022-12-14T04:28:34.545Z,-6.30
2022-12-14T04:31:03.999Z,-6.40
2022-12-14T04:33:48.623Z,-6.40
2022-12-14T04:36:20.447Z,-6.50
2022-12-14T04:38:49.063Z,-6.50
2022-12-14T04:41:19.333Z,-6.50
2022-12-14T04:43:49.027Z,-6.50
2022-12-14T04:46:18.946Z,-6.60
2022-12-14T04:48:52.012Z,-6.60
2022-12-14T04:51:25.858Z,-6.50
2022-12-14T04:53:56.844Z,-6.60
2022-12-14T04:56:27.773Z,-6.50
2022-12-14T04:58:56.488Z,-6.50
2022-12-14T05:01:34.568Z,-6.50
2022-12-14T05:04:12.488Z,-6.50
2022-12-14T05:06:44.942Z,-6.50
2022-12-14T05:09:18.173Z,-6.50
2022-12-14T05:11:53.606Z,-6.60
2022-12-14T05:14:28.816Z,-6.60
2022-12-14T05:16:57.184Z,-6.50
2022-12-14T05:19:26.887Z,-6.60
2022-12-14T05:21:56.444Z,-6.50
2022-12-14T05:24:24.730Z,-6.60
2022-12-14T05:26:52.962Z,-6.60
2022-12-14T05:29:21.253Z,-6.60
2022-12-14T05:31:49.690Z,-6.70
2022-12-14T05:34:18.580Z,-6.70
2022-12-14T05:36:48.196Z,-6.60
2022-12-14T05:39:16.604Z,-6.60
2022-12-14T05:41:44.861Z,-6.60
2022-12-14T05:44:13.151Z,-6.60
2022-12-14T05:46:41.437Z,-6.60
2022-12-14T05:49:09.921Z,-6.60
2022-12-14T05:51:38.221Z,-6.60
2022-12-14T05:54:07.864Z,-6.60
2022-12-14T05:56:36.167Z,-6.70
2022-12-14T05:59:04.427Z,-6.70
2022-12-14T06:01:32.728Z,-6.60
2022-12-14T06:04:01.376Z,-6.60
2022-12-14T06:06:29.715Z,-6.60
2022-12-14T06:08:58.046Z,-6.60
2022-12-14T06:11:27.920Z,-6.60
2022-12-14T06:13:56.139Z,-6.60
2022-12-14T06:16:26.474Z,-6.60
2022-12-14T06:18:56.070Z,-6.60
2022-12-14T06:21:28.171Z,-6.70
2022-12-14T06:23:56.623Z,-6.70
2022-12-14T06:26:25.309Z,-6.70
2022-12-14T06:28:54.985Z,-6.80
2022-12-14T06:31:25.144Z,-6.80
2022-12-14T06:33:54.639Z,-6.70
2022-12-14T06:36:24.667Z,-6.70
2022-12-14T06:38:53.092Z,-6.70
2022-12-14T06:41:21.680Z,-6.80
2022-12-14T06:43:50.010Z,-6.80
2022-12-14T06:46:21.034Z,-6.70
2022-12-14T06:48:51.527Z,-6.70
2022-12-14T06:51:20.064Z,-6.60
2022-12-14T06:53:50.943Z,-6.60
2022-12-14T06:56:20.413Z,-6.60
2022-12-14T06:58:48.820Z,-6.60
2022-12-14T07:01:20.488Z,-6.60
2022-12-14T07:03:49.290Z,-6.60
2022-12-14T07:06:17.703Z,-6.60
2022-12-14T07:08:46.065Z,-6.60
2022-12-14T07:11:15.676Z,-6.70
2022-12-14T07:13:44.047Z,-6.90
2022-12-14T07:16:16.408Z,-6.90
2022-12-14T07:18:46.216Z,-6.80
2022-12-14T07:21:15.993Z,-6.80
2022-12-14T07:23:45.645Z,-6.70
2022-12-14T07:26:15.314Z,-6.70
2022-12-14T07:28:45.350Z,-6.70
2022-12-14T07:31:15.603Z,-6.60
2022-12-14T07:33:45.651Z,-6.60
2022-12-14T07:36:15.781Z,-6.60
2022-12-14T07:38:44.942Z,-6.50
2022-12-14T07:41:18.936Z,-6.50
2022-12-14T07:43:50.388Z,-6.50
2022-12-14T07:46:20.666Z,-6.50
2022-12-14T07:48:51.619Z,-6.50
2022-12-14T07:51:22.285Z,-6.50
2022-12-14T07:53:50.928Z,-6.50
2022-12-14T07:56:21.008Z,-6.60
2022-12-14T07:58:49.486Z,-6.50
2022-12-14T08:01:19.121Z,-6.50
2022-12-14T08:03:49.892Z,-6.50
2022-12-14T08:06:19.035Z,-6.40
2022-12-14T08:08:47.326Z,-6.30
2022-12-14T08:11:17.789Z,-6.20
2022-12-14T08:13:46.870Z,-6.20
2022-12-14T08:16:16.783Z,-6.10
2022-12-14T08:18:45.602Z,-6.00
2022-12-14T08:21:15.401Z,-5.90
2022-12-14T08:23:43.725Z,-5.90
2022-12-14T08:26:12.024Z,-5.80
2022-12-14T08:28:40.349Z,-5.80
2022-12-14T08:31:09.844Z,-5.70
2022-12-14T08:33:38.957Z,-5.70
2022-12-14T08:36:09.623Z,-5.60
2022-12-14T08:38:39.655Z,-5.50
2022-12-14T08:41:08.950Z,-5.40
2022-12-14T08:43:37.301Z,-5.30
2022-12-14T08:46:06.036Z,-5.30
2022-12-14T08:48:34.455Z,-5.20
2022-12-14T08:51:04.232Z,-5.10
2022-12-14T08:53:32.951Z,-5.10
2022-12-14T08:56:06.271Z,-5.00
2022-12-14T08:58:35.088Z,-5.00
2022-12-14T09:01:04.397Z,-4.90
2022-12-14T09:03:33.346Z,-4.80
2022-12-14T09:06:05.685Z,-4.70
2022-12-14T09:08:34.239Z,-4.60
2022-12-14T09:11:05.604Z,-4.50
2022-12-14T09:13:34.130Z,-4.50
2022-12-14T09:16:04.212Z,-4.40
2022-12-14T09:18:34.405Z,-4.30
2022-12-14T09:21:02.888Z,-4.20
2022-12-14T09:23:32.345Z,-4.20
2022-12-14T09:26:04.597Z,-4.10
2022-12-14T09:28:33.550Z,-4.10
2022-12-14T09:31:03.242Z,-4.00
2022-12-14T09:33:32.315Z,-4.00
2022-12-14T09:36:04.086Z,-3.90
2022-12-14T09:38:32.950Z,-3.90
2022-12-14T09:41:07.218Z,-3.80
2022-12-14T09:43:43.327Z,-3.80
2022-12-14T09:46:28.750Z,-3.60
2022-12-14T09:48:57.047Z,-3.50
2022-12-14T09:51:30.227Z,-3.40
2022-12-14T09:54:04.144Z,-3.30
2022-12-14T09:56:34.195Z,-3.20
2022-12-14T09:59:03.874Z,-3.20
2022-12-14T10:02:29.247Z,-3.20
2022-12-14T10:04:52.906Z,-3.20
2022-12-14T10:07:24.130Z,-3.40
2022-12-14T10:09:56.497Z,-3.50
2022-12-14T10:12:44.993Z,-3.40
2022-12-14T10:15:22.670Z,-3.40
2022-12-14T10:18:22.349Z,-3.40
2022-12-14T10:21:02.332Z,-3.40
2022-12-14T10:23:30.640Z,-3.40
2022-12-14T10:26:03.553Z,-3.40
2022-12-14T10:28:43.664Z,-3.30
2022-12-14T10:31:17.683Z,-3.20
2022-12-14T10:33:47.510Z,-3.20
2022-12-14T10:36:21.088Z,-3.10
2022-12-14T10:38:55.472Z,-3.10
2022-12-14T10:41:29.253Z,-3.00
2022-12-14T10:44:01.840Z,-3.00
2022-12-14T10:46:37.744Z,-2.90
2022-12-14T10:49:11.753Z,-2.80
2022-12-14T10:51:42.319Z,-2.70
2022-12-14T10:54:16.821Z,-2.60
2022-12-14T10:56:50.007Z,-2.50
2022-12-14T10:59:34.905Z,-2.50
2022-12-14T11:02:08.769Z,-2.50
2022-12-14T11:04:38.689Z,-2.50
2022-12-14T11:07:08.510Z,-2.50
2022-12-14T11:09:37.214Z,-2.50
2022-12-14T11:12:07.938Z,-2.50
2022-12-14T11:14:37.955Z,-2.50
2022-12-14T11:17:06.538Z,-2.50
2022-12-14T11:19:37.490Z,-2.40
2022-12-14T11:22:18.644Z,-2.40
2022-12-14T11:24:51.281Z,-2.40
2022-12-14T11:27:21.914Z,-2.30
2022-12-14T11:29:51.980Z,-2.30
2022-12-14T11:32:24.715Z,-2.20
2022-12-14T11:34:59.763Z,-2.20
2022-12-14T11:37:29.716Z,-2.20
2022-12-14T11:39:59.671Z,-2.10
2022-12-14T11:42:28.014Z,-2.10
2022-12-14T11:45:02.169Z,-2.00
2022-12-14T11:47:30.487Z,-2.00
2022-12-14T11:49:58.919Z,-1.90
2022-12-14T11:52:42.918Z,-1.90
2022-12-14T11:55:14.701Z,-1.80
2022-12-14T11:57:49.187Z,-1.70
2022-12-14T12:00:26.939Z,-1.70
2022-12-14T12:03:01.827Z,-1.70
2022-12-14T12:05:31.606Z,-1.70
2022-12-14T12:08:00.916Z,-1.70
2022-12-14T12:10:38.561Z,-1.70
2022-12-14T12:13:08.547Z,-1.70
2022-12-14T12:15:40.802Z,-1.70
2022-12-14T12:18:14.826Z,-1.60
2022-12-14T12:20:49.402Z,-1.60
2022-12-14T12:23:20.660Z,-1.60
2022-12-14T12:25:49.714Z,-1.50
2022-12-14T12:28:21.492Z,-1.50
2022-12-14T12:30:53.154Z,-1.50
2022-12-14T12:33:35.243Z,-1.50
2022-12-14T12:36:05.709Z,-1.60
2022-12-14T12:38:50.182Z,-1.60
2022-12-14T12:41:48.517Z,-1.60
2022-12-14T12:44:25.545Z,-1.70
2022-12-14T12:49:55.348Z,-1.80
2022-12-14T12:52:26.342Z,-1.90
2022-12-14T12:54:58.093Z,-1.90
2022-12-14T12:57:27.124Z,-2.00
2022-12-14T12:59:56.350Z,-2.10
2022-12-14T13:02:31.614Z,-2.10
2022-12-14T13:05:22.062Z,-2.20
2022-12-14T13:07:52.658Z,-2.20
2022-12-14T13:10:22.905Z,-2.30
2022-12-14T13:12:52.888Z,-2.30
2022-12-14T13:15:25.189Z,-2.30
2022-12-14T13:17:57.653Z,-2.40
2022-12-14T13:20:28.481Z,-2.40
2022-12-14T13:22:59.497Z,-2.50
2022-12-14T13:25:41.583Z,-2.50
2022-12-14T13:28:45.932Z,-2.50
2022-12-14T13:31:21.922Z,-2.60
2022-12-14T13:34:16.263Z,-2.60
2022-12-14T13:37:40.594Z,-2.60
2022-12-14T13:40:37.898Z,-2.60
2022-12-14T13:43:17.956Z,-2.70
2022-12-14T13:45:49.797Z,-2.70
2022-12-14T13:48:23.631Z,-2.70
2022-12-14T13:51:01.982Z,-2.80
2022-12-14T13:53:32.808Z,-2.90
2022-12-14T13:56:01.152Z,-3.00
2022-12-14T13:58:38.817Z,-3.10
2022-12-14T14:01:08.580Z,-3.10
2022-12-14T14:03:58.021Z,-3.10
2022-12-14T14:06:39.291Z,-3.10
2022-12-14T14:09:59.775Z,-3.10
2022-12-14T14:12:45.019Z,-3.20
2022-12-14T14:16:26.275Z,-3.20
2022-12-14T14:18:47.844Z,-3.30
2022-12-14T14:21:58.870Z,-3.30
2022-12-14T14:24:29.490Z,-3.30
2022-12-14T14:27:11.646Z,-3.30
2022-12-14T14:29:45.010Z,-3.20
2022-12-14T14:32:40.457Z,-3.20
2022-12-14T14:35:22.562Z,-3.20
2022-12-14T14:37:59.391Z,-3.10
2022-12-14T14:41:06.591Z,-3.10
2022-12-14T14:43:27.666Z,-3.20
2022-12-14T14:45:57.805Z,-3.20
2022-12-14T14:48:33.723Z,-3.30
2022-12-14T14:51:10.017Z,-3.30
2022-12-14T14:53:38.689Z,-3.40
2022-12-14T14:56:36.276Z,-3.40
2022-12-14T14:59:51.041Z,-3.50
2022-12-14T15:02:35.119Z,-3.70
2022-12-14T15:05:45.473Z,-3.70
2022-12-14T15:07:51.832Z,-3.80
2022-12-14T15:10:26.942Z,-3.90
2022-12-14T15:12:58.587Z,-3.90
2022-12-14T15:15:31.879Z,-3.90
2022-12-14T15:18:16.460Z,-3.80
2022-12-14T15:20:50.973Z,-3.80
2022-12-14T15:23:19.295Z,-3.80
2022-12-14T15:25:47.571Z,-3.80
2022-12-14T15:28:20.340Z,-3.80
2022-12-14T15:30:49.403Z,-3.80
2022-12-14T15:33:23.905Z,-3.80
2022-12-14T15:35:52.202Z,-3.90
2022-12-14T15:38:28.809Z,-3.90
2022-12-14T15:40:58.284Z,-3.90
2022-12-14T15:43:28.776Z,-3.90
2022-12-14T15:46:04.238Z,-3.90
2022-12-14T15:48:35.000Z,-4.00
2022-12-14T15:51:05.034Z,-3.90
2022-12-14T15:53:36.541Z,-4.00
2022-12-14T15:56:23.324Z,-4.00
2022-12-14T15:58:53.357Z,-4.00
2022-12-14T16:01:24.383Z,-4.00
2022-12-14T16:03:54.668Z,-4.10
2022-12-14T16:06:23.276Z,-4.10
2022-12-14T16:08:56.261Z,-4.10
2022-12-14T16:11:26.330Z,-4.10
2022-12-14T16:13:56.220Z,-4.20
2022-12-14T16:16:24.622Z,-4.20
2022-12-14T16:18:53.132Z,-4.20
2022-12-14T16:21:28.598Z,-4.20
2022-12-14T16:23:57.533Z,-4.30
2022-12-14T16:26:26.778Z,-4.30
2022-12-14T16:29:10.210Z,-4.30
2022-12-14T16:31:39.203Z,-4.30
2022-12-14T16:34:09.826Z,-4.30
2022-12-14T16:36:38.212Z,-4.30
2022-12-14T16:39:09.345Z,-4.30
2022-12-14T16:41:38.058Z,-4.30
2022-12-14T16:44:10.001Z,-4.30
2022-12-14T16:46:38.476Z,-4.40
2022-12-14T16:49:24.090Z,-4.50
2022-12-14T16:52:07.200Z,-4.50
2022-12-14T16:54:36.698Z,-4.50
2022-12-14T16:57:06.940Z,-4.60
2022-12-14T16:59:42.909Z,-4.60
2022-12-14T17:02:29.961Z,-4.60
2022-12-14T17:04:59.185Z,-4.60
2022-12-14T17:07:30.356Z,-4.60
2022-12-14T17:09:58.948Z,-4.60
2022-12-14T17:12:27.545Z,-4.60
2022-12-14T17:14:57.281Z,-4.70
2022-12-14T17:17:30.038Z,-4.70
2022-12-14T17:19:58.618Z,-4.70
2022-12-14T17:22:28.810Z,-4.70
2022-12-14T17:24:57.651Z,-4.80
2022-12-14T17:27:26.987Z,-4.80
2022-12-14T17:29:57.539Z,-4.80
2022-12-14T17:32:27.714Z,-4.80
2022-12-14T17:34:56.161Z,-4.80
2022-12-14T17:37:27.671Z,-4.80
2022-12-14T17:40:00.571Z,-4.90
2022-12-14T17:42:28.982Z,-4.90
2022-12-14T17:44:59.422Z,-4.90
2022-12-14T17:47:29.195Z,-4.90
2022-12-14T17:49:57.553Z,-4.90
2022-12-14T17:52:31.237Z,-4.90
2022-12-14T17:55:00.905Z,-4.90
2022-12-14T17:57:29.267Z,-4.90
2022-12-14T18:00:13.257Z,-4.80
2022-12-14T18:02:42.027Z,-4.80
2022-12-14T18:05:22.607Z,-4.80
2022-12-14T18:07:54.951Z,-4.80
2022-12-14T18:10:23.351Z,-4.80
2022-12-14T18:12:51.678Z,-4.80
2022-12-14T18:15:23.367Z,-4.80
2022-12-14T18:17:51.840Z,-4.80
2022-12-14T18:20:20.510Z,-4.90
2022-12-14T18:22:50.031Z,-4.90
2022-12-14T18:25:30.685Z,-4.90
2022-12-14T18:27:59.158Z,-5.00
2022-12-14T18:30:33.382Z,-5.00
2022-12-14T18:33:05.280Z,-5.00
2022-12-14T18:35:34.277Z,-5.10
